createdAt,value
2018-11-25T00:01:54.328Z,5.80
2018-11-25T00:04:26.146Z,5.80
2018-11-25T00:06:58.676Z,5.80
2018-11-25T00:09:31.068Z,5.70
2018-11-25T00:12:02.713Z,5.70
2018-11-25T00:14:34.890Z,5.70
2018-11-25T00:17:06.175Z,5.60
2018-11-25T00:19:37.883Z,5.60
2018-11-25T00:22:08.830Z,5.60
2018-11-25T00:24:40.731Z,5.60
2018-11-25T00:27:12.469Z,5.60
2018-11-25T00:29:44.973Z,5.60
2018-11-25T00:32:15.564Z,5.60
2018-11-25T00:34:46.747Z,5.50
2018-11-25T00:37:16.716Z,5.50
2018-11-25T00:39:46.738Z,5.50
2018-11-25T00:42:16.791Z,5.50
2018-11-25T00:44:54.305Z,5.50
2018-11-25T00:47:25.076Z,5.50
2018-11-25T00:49:55.696Z,5.50
2018-11-25T00:52:28.406Z,5.50
2018-11-25T00:54:59.669Z,5.60
2018-11-25T00:57:31.495Z,5.60
2018-11-25T01:00:03.423Z,5.60
2018-11-25T01:02:34.245Z,5.50
2018-11-25T01:05:05.026Z,5.50
2018-11-25T01:07:35.130Z,5.50
2018-11-25T01:10:06.966Z,5.50
2018-11-25T01:12:38.969Z,5.40
2018-11-25T01:15:12.193Z,5.40
2018-11-25T01:17:43.447Z,5.40
2018-11-25T01:20:16.594Z,5.40
2018-11-25T01:22:46.691Z,5.40
2018-11-25T01:25:16.638Z,5.50
2018-11-25T01:27:46.692Z,5.50
2018-11-25T01:30:17.335Z,5.50
2018-11-25T01:32:48.832Z,5.60
2018-11-25T01:35:20.912Z,5.50
2018-11-25T01:37:53.226Z,5.50
2018-11-25T01:40:24.110Z,5.50
2018-11-25T01:42:55.608Z,5.50
2018-11-25T01:45:30.547Z,5.50
2018-11-25T01:48:00.528Z,5.50
2018-11-25T01:50:30.556Z,5.50
2018-11-25T01:53:00.641Z,5.60
2018-11-25T01:55:30.582Z,5.60
2018-11-25T01:58:00.664Z,5.60
2018-11-25T02:00:30.653Z,5.60
2018-11-25T02:06:06.471Z,5.50
2018-11-25T02:08:36.501Z,5.40
2018-11-25T02:11:06.454Z,5.30
2018-11-25T02:13:36.480Z,5.20
2018-11-25T02:16:06.586Z,5.20
2018-11-25T02:18:36.595Z,5.10
2018-11-25T02:21:06.641Z,5.10
2018-11-25T02:23:36.654Z,5.00
2018-11-25T02:26:06.901Z,4.90
2018-11-25T02:28:36.935Z,4.80
2018-11-25T02:31:06.944Z,4.80
2018-11-25T02:33:37.055Z,4.60
2018-11-25T02:36:07.155Z,4.60
2018-11-25T02:38:37.085Z,4.50
2018-11-25T02:41:07.134Z,4.50
2018-11-25T02:43:37.181Z,4.40
2018-11-25T02:46:07.217Z,4.30
2018-11-25T02:48:37.169Z,4.20
2018-11-25T02:51:07.201Z,4.20
2018-11-25T02:53:37.214Z,4.20
2018-11-25T02:56:07.190Z,4.20
2018-11-25T02:58:37.286Z,4.20
2018-11-25T03:01:08.792Z,4.10
2018-11-25T03:03:38.764Z,4.10
2018-11-25T03:06:08.783Z,4.00
2018-11-25T03:08:38.809Z,4.00
2018-11-25T03:11:08.794Z,4.00
2018-11-25T03:13:38.835Z,4.00
2018-11-25T03:16:08.820Z,4.10
2018-11-25T03:18:38.865Z,4.10
2018-11-25T03:21:08.868Z,4.20
2018-11-25T03:23:38.855Z,4.30
2018-11-25T03:26:08.475Z,4.30
2018-11-25T03:28:38.542Z,4.40
2018-11-25T03:31:08.600Z,4.50
2018-11-25T03:33:38.659Z,4.50
2018-11-25T03:36:08.602Z,4.50
2018-11-25T03:38:38.704Z,4.50
2018-11-25T03:41:08.708Z,4.50
2018-11-25T03:43:38.638Z,4.60
2018-11-25T03:46:09.206Z,4.60
2018-11-25T03:48:39.203Z,4.60
2018-11-25T03:51:09.154Z,4.60
2018-11-25T03:53:39.198Z,4.60
2018-11-25T03:56:09.162Z,4.60
2018-11-25T03:58:39.141Z,4.60
2018-11-25T04:01:09.172Z,4.70
2018-11-25T04:03:39.160Z,4.80
2018-11-25T04:06:09.151Z,4.80
2018-11-25T04:08:39.105Z,4.80
2018-11-25T04:11:09.093Z,4.80
2018-11-25T04:13:39.081Z,4.80
2018-11-25T04:16:09.040Z,4.90
2018-11-25T04:18:39.051Z,4.90
2018-11-25T04:21:09.009Z,4.90
2018-11-25T04:23:38.969Z,4.90
2018-11-25T04:26:08.961Z,5.00
2018-11-25T04:28:39.108Z,5.00
2018-11-25T04:31:09.079Z,5.00
2018-11-25T04:33:39.081Z,5.00
2018-11-25T04:36:08.980Z,5.00
2018-11-25T04:38:39.014Z,5.00
2018-11-25T04:41:09.112Z,5.10
2018-11-25T04:43:39.113Z,5.10
2018-11-25T04:46:09.140Z,5.10
2018-11-25T04:48:39.081Z,5.10
2018-11-25T04:51:09.094Z,5.10
2018-11-25T04:53:38.999Z,5.10
2018-11-25T04:56:09.036Z,5.10
2018-11-25T04:58:39.006Z,5.10
2018-11-25T05:01:26.408Z,5.10
2018-11-25T05:03:56.404Z,5.10
2018-11-25T05:06:26.471Z,5.10
2018-11-25T05:08:56.508Z,5.10
2018-11-25T05:11:26.502Z,5.10
2018-11-25T05:13:56.411Z,5.00
2018-11-25T05:16:26.408Z,4.90
2018-11-25T05:18:56.464Z,4.80
2018-11-25T05:21:26.446Z,4.70
2018-11-25T05:24:00.781Z,4.70
2018-11-25T05:26:30.871Z,4.60
2018-11-25T05:29:00.884Z,4.60
2018-11-25T05:31:30.858Z,4.70
2018-11-25T05:34:01.015Z,4.70
2018-11-25T05:36:31.119Z,4.70
2018-11-25T05:39:01.244Z,4.70
2018-11-25T05:41:31.345Z,4.60
2018-11-25T05:44:01.595Z,4.60
2018-11-25T05:46:51.553Z,4.60
2018-11-25T05:49:21.672Z,4.60
2018-11-25T05:51:51.715Z,4.60
2018-11-25T05:54:21.732Z,4.60
2018-11-25T05:57:02.937Z,4.70
2018-11-25T05:59:38.762Z,4.70
2018-11-25T06:02:08.957Z,4.70
2018-11-25T06:04:39.107Z,4.80
2018-11-25T06:07:09.218Z,4.80
2018-11-25T06:09:39.332Z,4.80
2018-11-25T06:12:09.490Z,4.80
2018-11-25T06:14:48.918Z,4.80
2018-11-25T06:17:18.929Z,4.80
2018-11-25T06:19:48.901Z,4.80
2018-11-25T06:22:18.842Z,4.80
2018-11-25T06:24:48.903Z,4.80
2018-11-25T06:27:18.993Z,4.80
2018-11-25T06:29:49.024Z,4.80
2018-11-25T06:32:19.031Z,4.80
2018-11-25T06:34:49.111Z,4.80
2018-11-25T06:37:19.090Z,4.70
2018-11-25T06:39:49.014Z,4.70
2018-11-25T06:42:19.215Z,4.70
2018-11-25T06:44:49.191Z,4.70
2018-11-25T06:47:19.205Z,4.70
2018-11-25T06:50:07.227Z,4.70
2018-11-25T06:52:38.070Z,4.70
2018-11-25T06:55:09.812Z,4.60
2018-11-25T06:57:40.834Z,4.70
2018-11-25T07:00:15.785Z,4.70
2018-11-25T07:02:46.586Z,4.60
2018-11-25T07:05:18.555Z,4.60
2018-11-25T07:07:48.981Z,4.50
2018-11-25T07:10:21.882Z,4.60
2018-11-25T07:12:53.550Z,4.60
2018-11-25T07:15:23.614Z,4.60
2018-11-25T07:17:53.756Z,4.50
2018-11-25T07:20:23.956Z,4.50
2018-11-25T07:22:54.280Z,4.50
2018-11-25T07:25:24.499Z,4.50
2018-11-25T07:27:54.535Z,4.50
2018-11-25T07:30:31.146Z,4.40
2018-11-25T07:33:20.991Z,4.50
2018-11-25T07:35:51.237Z,4.50
2018-11-25T07:38:21.491Z,4.50
2018-11-25T07:40:51.630Z,4.60
2018-11-25T07:43:22.339Z,4.60
2018-11-25T07:45:52.365Z,4.70
2018-11-25T07:48:23.348Z,4.70
2018-11-25T07:50:53.324Z,4.70
2018-11-25T07:53:23.400Z,4.70
2018-11-25T07:55:53.356Z,4.70
2018-11-25T07:58:23.448Z,4.80
2018-11-25T08:00:53.446Z,4.80
2018-11-25T08:03:23.527Z,4.90
2018-11-25T08:05:53.580Z,4.90
2018-11-25T08:08:23.918Z,4.90
2018-11-25T08:10:54.087Z,5.00
2018-11-25T08:13:24.063Z,5.00
2018-11-25T08:15:54.083Z,5.00
2018-11-25T08:18:24.080Z,5.00
2018-11-25T08:20:54.099Z,5.10
2018-11-25T08:23:24.173Z,5.10
2018-11-25T08:25:54.227Z,5.10
2018-11-25T08:28:24.190Z,5.20
2018-11-25T08:30:54.276Z,5.20
2018-11-25T08:33:24.342Z,5.20
2018-11-25T08:35:54.307Z,5.30
2018-11-25T08:38:24.404Z,5.30
2018-11-25T08:40:54.421Z,5.30
2018-11-25T08:43:24.450Z,5.40
2018-11-25T08:45:54.509Z,5.40
2018-11-25T08:48:24.507Z,5.50
2018-11-25T08:50:54.685Z,5.50
2018-11-25T08:53:24.756Z,5.50
2018-11-25T08:55:54.747Z,5.50
2018-11-25T08:58:24.700Z,5.50
2018-11-25T09:00:54.730Z,5.50
2018-11-25T09:03:24.706Z,5.60
2018-11-25T09:05:54.626Z,5.60
2018-11-25T09:08:24.626Z,5.70
2018-11-25T09:10:54.744Z,5.80
2018-11-25T09:13:24.755Z,5.80
2018-11-25T09:15:54.806Z,5.90
2018-11-25T09:18:24.997Z,5.90
2018-11-25T09:20:54.905Z,6.00
2018-11-25T09:23:24.815Z,6.10
2018-11-25T09:25:54.756Z,6.20
2018-11-25T09:28:24.524Z,6.20
2018-11-25T09:30:54.526Z,6.30
2018-11-25T09:33:24.543Z,6.30
2018-11-25T09:35:54.560Z,6.30
2018-11-25T09:38:24.502Z,6.40
2018-11-25T09:40:59.158Z,6.50
2018-11-25T09:43:24.287Z,6.40
2018-11-25T09:45:54.245Z,6.50
2018-11-25T09:48:24.228Z,6.60
2018-11-25T09:50:54.148Z,6.60
2018-11-25T09:53:24.167Z,6.70
2018-11-25T09:55:54.388Z,6.80
2018-11-25T09:58:25.527Z,6.90
2018-11-25T10:00:54.411Z,7.00
2018-11-25T10:03:24.406Z,7.10
2018-11-25T10:05:54.516Z,7.10
2018-11-25T10:08:24.464Z,7.10
2018-11-25T10:10:54.574Z,7.20
2018-11-25T10:13:24.558Z,7.30
2018-11-25T10:15:54.555Z,7.50
2018-11-25T10:18:24.484Z,7.50
2018-11-25T10:20:54.522Z,7.60
2018-11-25T10:23:24.552Z,7.70
2018-11-25T10:25:54.501Z,7.70
2018-11-25T10:28:24.391Z,7.70
2018-11-25T10:30:54.321Z,7.80
2018-11-25T10:33:25.420Z,7.80
2018-11-25T10:35:55.375Z,7.80
2018-11-25T10:38:25.408Z,7.70
2018-11-25T10:40:55.481Z,7.70
2018-11-25T10:43:25.582Z,7.70
2018-11-25T10:45:55.539Z,7.70
2018-11-25T10:48:25.492Z,7.90
2018-11-25T10:50:55.434Z,8.00
2018-11-25T10:53:25.404Z,8.10
2018-11-25T10:55:55.508Z,8.10
2018-11-25T10:58:25.459Z,8.10
2018-11-25T11:00:55.956Z,8.10
2018-11-25T11:03:32.411Z,8.10
2018-11-25T11:06:07.350Z,8.20
2018-11-25T11:08:37.302Z,8.20
2018-11-25T11:11:07.357Z,8.30
2018-11-25T11:13:37.309Z,8.20
2018-11-25T11:16:07.447Z,8.30
2018-11-25T11:18:37.538Z,8.10
2018-11-25T11:21:07.502Z,7.80
2018-11-25T11:23:37.506Z,7.70
2018-11-25T11:26:12.021Z,7.80
2018-11-25T11:28:41.992Z,7.80
2018-11-25T11:31:13.487Z,7.70
2018-11-25T11:33:41.965Z,7.60
2018-11-25T11:36:13.141Z,7.50
2018-11-25T11:38:43.093Z,7.50
2018-11-25T11:41:13.057Z,7.50
2018-11-25T11:43:43.071Z,7.40
2018-11-25T11:46:13.055Z,7.40
2018-11-25T11:48:43.004Z,7.50
2018-11-25T11:51:13.007Z,7.50
2018-11-25T11:53:42.941Z,7.50
2018-11-25T11:56:12.920Z,7.60
2018-11-25T11:58:43.026Z,7.60
2018-11-25T12:01:13.015Z,7.90
2018-11-25T12:03:42.930Z,8.10
2018-11-25T12:06:12.989Z,8.40
2018-11-25T12:08:42.919Z,8.50
2018-11-25T12:11:12.944Z,8.50
2018-11-25T12:13:42.904Z,8.40
2018-11-25T12:16:12.812Z,8.40
2018-11-25T12:18:42.814Z,8.50
2018-11-25T12:21:12.735Z,8.60
2018-11-25T12:23:42.784Z,8.50
2018-11-25T12:26:12.801Z,8.40
2018-11-25T12:28:42.799Z,8.30
2018-11-25T12:31:13.666Z,8.30
2018-11-25T12:33:43.669Z,8.30
2018-11-25T12:36:13.645Z,8.20
2018-11-25T12:38:43.609Z,8.10
2018-11-25T12:41:13.605Z,8.10
2018-11-25T12:43:43.600Z,8.20
2018-11-25T12:46:13.583Z,8.20
2018-11-25T12:48:43.541Z,8.10
2018-11-25T12:51:13.501Z,8.00
2018-11-25T12:53:43.466Z,7.70
2018-11-25T12:56:13.533Z,7.50
2018-11-25T12:58:43.526Z,7.50
2018-11-25T13:01:13.564Z,7.40
2018-11-25T13:03:43.611Z,7.30
2018-11-25T13:06:13.688Z,7.30
2018-11-25T13:08:43.710Z,7.30
2018-11-25T13:11:13.635Z,7.20
2018-11-25T13:13:43.638Z,7.10
2018-11-25T13:16:13.642Z,7.10
2018-11-25T13:18:43.649Z,7.20
2018-11-25T13:21:13.614Z,7.20
2018-11-25T13:23:43.546Z,7.10
2018-11-25T13:26:13.540Z,7.10
2018-11-25T13:28:43.563Z,7.10
2018-11-25T13:31:13.565Z,7.10
2018-11-25T13:33:43.607Z,7.20
2018-11-25T13:36:13.644Z,7.30
2018-11-25T13:38:43.657Z,7.50
2018-11-25T13:41:13.675Z,7.50
2018-11-25T13:43:43.737Z,7.50
2018-11-25T13:46:13.779Z,7.40
2018-11-25T13:48:43.925Z,7.40
2018-11-25T13:51:13.879Z,7.30
2018-11-25T13:53:43.853Z,7.30
2018-11-25T13:56:13.874Z,7.10
2018-11-25T13:58:43.934Z,7.10
2018-11-25T14:01:13.990Z,6.90
2018-11-25T14:03:44.264Z,6.70
2018-11-25T14:06:15.262Z,6.60
2018-11-25T14:08:47.665Z,6.40
2018-11-25T14:11:17.639Z,6.40
2018-11-25T14:13:47.669Z,6.40
2018-11-25T14:16:20.045Z,6.50
2018-11-25T14:18:50.057Z,6.70
2018-11-25T14:21:20.038Z,6.70
2018-11-25T14:23:50.095Z,6.80
2018-11-25T14:26:23.426Z,6.90
2018-11-25T14:28:53.202Z,6.90
2018-11-25T14:31:23.324Z,6.90
2018-11-25T14:33:53.396Z,6.90
2018-11-25T14:36:23.660Z,6.80
2018-11-25T14:38:53.580Z,6.70
2018-11-25T14:41:23.488Z,6.60
2018-11-25T14:43:53.515Z,6.50
2018-11-25T14:46:23.586Z,6.40
2018-11-25T14:48:53.550Z,6.40
2018-11-25T14:51:23.586Z,6.30
2018-11-25T14:53:53.619Z,6.20
2018-11-25T14:56:23.617Z,6.10
2018-11-25T14:58:53.572Z,6.10
2018-11-25T15:01:23.505Z,6.10
2018-11-25T15:03:54.987Z,6.10
2018-11-25T15:06:29.206Z,6.00
2018-11-25T15:08:55.185Z,5.90
2018-11-25T15:11:25.128Z,5.80
2018-11-25T15:13:55.144Z,5.70
2018-11-25T15:16:25.155Z,5.50
2018-11-25T15:18:55.212Z,5.50
2018-11-25T15:21:25.242Z,5.40
2018-11-25T15:23:55.157Z,5.30
2018-11-25T15:26:25.157Z,5.20
2018-11-25T15:28:55.215Z,5.00
2018-11-25T15:31:25.214Z,4.90
2018-11-25T15:33:55.095Z,4.80
2018-11-25T15:36:25.162Z,4.80
2018-11-25T15:38:55.195Z,4.90
2018-11-25T15:41:25.194Z,4.90
2018-11-25T15:43:55.230Z,4.80
2018-11-25T15:46:25.218Z,4.90
2018-11-25T15:48:55.214Z,4.90
2018-11-25T15:51:25.347Z,4.90
2018-11-25T15:53:55.294Z,4.90
2018-11-25T15:56:25.338Z,4.80
2018-11-25T15:58:55.342Z,4.70
2018-11-25T16:01:25.342Z,4.60
2018-11-25T16:03:55.347Z,4.50
2018-11-25T16:06:28.168Z,4.60
2018-11-25T16:08:58.168Z,4.60
2018-11-25T16:11:28.265Z,4.70
2018-11-25T16:13:58.305Z,4.80
2018-11-25T16:16:28.355Z,4.90
2018-11-25T16:18:58.500Z,4.90
2018-11-25T16:21:28.510Z,5.00
2018-11-25T16:23:58.470Z,5.10
2018-11-25T16:26:30.793Z,5.20
2018-11-25T16:29:04.772Z,5.30
2018-11-25T16:31:34.657Z,5.50
2018-11-25T16:34:04.639Z,5.60
2018-11-25T16:36:34.724Z,5.60
2018-11-25T16:39:06.014Z,5.70
2018-11-25T16:41:36.095Z,5.80
2018-11-25T16:44:06.187Z,5.80
2018-11-25T16:46:36.321Z,5.90
2018-11-25T16:49:06.424Z,5.90
2018-11-25T16:51:36.349Z,5.90
2018-11-25T16:54:06.465Z,6.00
2018-11-25T16:56:36.474Z,6.10
2018-11-25T16:59:06.731Z,6.10
2018-11-25T17:01:36.676Z,6.10
2018-11-25T17:04:06.867Z,6.20
2018-11-25T17:06:38.151Z,6.20
2018-11-25T17:09:11.237Z,6.20
2018-11-25T17:11:41.233Z,6.20
2018-11-25T17:14:13.431Z,6.20
2018-11-25T17:16:44.266Z,6.20
2018-11-25T17:19:20.937Z,6.20
2018-11-25T17:21:54.210Z,6.20
2018-11-25T17:24:24.739Z,6.20
2018-11-25T17:26:54.812Z,6.20
2018-11-25T17:29:24.892Z,6.20
2018-11-25T17:31:55.173Z,6.20
2018-11-25T17:34:31.595Z,6.30
2018-11-25T17:37:01.734Z,6.30
2018-11-25T17:39:33.076Z,6.30
2018-11-25T17:42:03.766Z,6.40
2018-11-25T17:44:34.081Z,6.40
2018-11-25T17:47:04.225Z,6.40
2018-11-25T17:49:34.325Z,6.40
2018-11-25T17:52:04.520Z,6.50
2018-11-25T17:54:37.401Z,6.50
2018-11-25T17:57:07.886Z,6.50
2018-11-25T17:59:39.210Z,6.40
2018-11-25T18:05:10.114Z,6.50
2018-11-25T18:07:40.384Z,6.40
2018-11-25T18:10:14.938Z,6.50
2018-11-25T18:12:45.659Z,6.50
2018-11-25T18:15:18.184Z,6.50
2018-11-25T18:17:59.872Z,6.40
2018-11-25T18:26:49.733Z,6.40
2018-11-25T18:29:20.785Z,6.40
2018-11-25T18:37:41.436Z,6.40
2018-11-25T18:40:12.751Z,6.50
2018-11-25T18:42:43.512Z,6.50
2018-11-25T18:45:17.108Z,6.50
2018-11-25T18:47:49.551Z,6.50
2018-11-25T18:50:20.824Z,6.50
2018-11-25T18:52:52.297Z,6.50
2018-11-25T18:55:20.759Z,6.60
2018-11-25T18:57:50.743Z,6.60
2018-11-25T19:00:27.331Z,6.50
2018-11-25T19:02:57.679Z,6.50
2018-11-25T19:05:39.487Z,6.50
2018-11-25T19:08:19.665Z,6.60
2018-11-25T19:10:50.001Z,6.60
2018-11-25T19:13:23.188Z,6.60
2018-11-25T19:15:53.278Z,6.60
2018-11-25T19:18:23.298Z,6.60
2018-11-25T19:20:53.359Z,6.60
2018-11-25T19:23:23.350Z,6.60
2018-11-25T19:25:54.593Z,6.60
2018-11-25T19:28:24.914Z,6.60
2018-11-25T19:30:55.187Z,6.70
2018-11-25T19:33:26.022Z,6.70
2018-11-25T19:35:56.299Z,6.80
2018-11-25T19:38:26.354Z,6.80
2018-11-25T19:40:56.616Z,6.80
2018-11-25T19:43:26.571Z,6.70
2018-11-25T19:45:56.638Z,6.70
2018-11-25T19:48:27.621Z,6.60
2018-11-25T19:50:57.696Z,6.70
2018-11-25T19:53:27.840Z,6.70
2018-11-25T19:55:57.910Z,6.70
2018-11-25T19:58:27.944Z,6.70
2018-11-25T20:01:43.460Z,6.70
2018-11-25T20:04:13.963Z,6.60
2018-11-25T20:06:44.469Z,6.50
2018-11-25T20:09:15.628Z,6.60
2018-11-25T20:11:47.029Z,6.60
2018-11-25T20:14:17.469Z,6.60
2018-11-25T20:16:52.753Z,6.60
2018-11-25T20:19:23.532Z,6.60
2018-11-25T20:21:59.682Z,6.60
2018-11-25T20:24:30.766Z,6.60
2018-11-25T20:27:07.678Z,6.60
2018-11-25T20:29:40.705Z,6.60
2018-11-25T20:37:18.294Z,6.60
2018-11-25T20:39:50.231Z,6.50
2018-11-25T20:42:21.511Z,6.50
2018-11-25T20:44:52.920Z,6.50
2018-11-25T20:47:24.504Z,6.50
2018-11-25T20:49:55.369Z,6.50
2018-11-25T20:52:31.656Z,6.40
2018-11-25T20:55:02.877Z,6.40
2018-11-25T20:57:35.258Z,6.40
2018-11-25T21:00:09.788Z,6.40
2018-11-25T21:02:41.100Z,6.40
2018-11-25T21:05:16.657Z,6.50
2018-11-25T21:07:47.781Z,6.40
2018-11-25T21:10:20.708Z,6.40
2018-11-25T21:12:52.795Z,6.40
2018-11-25T21:15:24.006Z,6.40
2018-11-25T21:17:54.968Z,6.40
2018-11-25T21:20:26.737Z,6.30
2018-11-25T21:22:58.148Z,6.40
2018-11-25T21:25:29.044Z,6.40
2018-11-25T21:28:00.952Z,6.40
2018-11-25T21:30:31.751Z,6.30
2018-11-25T21:33:03.139Z,6.40
2018-11-25T21:35:34.418Z,6.40
2018-11-25T21:38:05.954Z,6.40
2018-11-25T21:40:39.116Z,6.30
2018-11-25T21:43:10.873Z,6.30
2018-11-25T21:45:42.529Z,6.30
2018-11-25T21:48:14.206Z,6.20
2018-11-25T21:50:46.216Z,6.20
2018-11-25T21:53:16.895Z,6.20
2018-11-25T21:58:19.273Z,6.10
2018-11-25T22:00:50.473Z,6.20
2018-11-25T22:03:22.458Z,6.20
2018-11-25T22:05:53.925Z,6.20
2018-11-25T22:08:26.128Z,6.20
2018-11-25T22:10:59.228Z,6.20
2018-11-25T22:13:31.301Z,6.10
2018-11-25T22:16:02.192Z,6.20
2018-11-25T22:18:34.702Z,6.10
2018-11-25T22:21:06.557Z,6.10
2018-11-25T22:23:38.281Z,6.10
2018-11-25T22:26:09.134Z,6.10
2018-11-25T22:28:41.716Z,6.10
2018-11-25T22:31:13.538Z,6.10
2018-11-25T22:33:45.075Z,6.00
2018-11-25T22:36:15.937Z,6.00
2018-11-25T22:38:47.453Z,6.00
2018-11-25T22:41:18.274Z,6.00
2018-11-25T22:43:49.233Z,5.90
2018-11-25T22:46:21.055Z,5.90
2018-11-25T22:48:52.015Z,5.90
2018-11-25T22:51:23.767Z,5.80
2018-11-25T22:53:55.127Z,5.80
2018-11-25T22:56:26.507Z,5.70
2018-11-25T22:58:57.991Z,5.60
2018-11-25T23:01:28.761Z,5.60
2018-11-25T23:04:10.943Z,5.50
2018-11-25T23:06:56.953Z,5.40
2018-11-25T23:09:27.754Z,5.40
2018-11-25T23:11:59.174Z,5.30
2018-11-25T23:14:30.539Z,5.20
2018-11-25T23:17:02.349Z,5.20
2018-11-25T23:19:34.619Z,5.10
2018-11-25T23:22:05.954Z,5.00
2018-11-25T23:24:36.568Z,5.00
2018-11-25T23:27:07.249Z,4.90
2018-11-25T23:29:37.911Z,4.90
2018-11-25T23:32:08.552Z,4.80
2018-11-25T23:34:39.213Z,4.70
2018-11-25T23:37:09.762Z,4.70
2018-11-25T23:39:40.476Z,4.70
2018-11-25T23:42:11.966Z,4.70
2018-11-25T23:44:42.556Z,4.70
2018-11-25T23:47:13.314Z,4.70
2018-11-25T23:52:23.919Z,4.50
2018-11-25T23:54:54.937Z,4.50
2018-11-25T23:57:26.239Z,4.50
2018-11-25T23:59:57.120Z,4.50
